Time;durP1;ratioP1;P1;durP2;ratioP2;P2;SDS_P1;SDS_P2;PMS_P1;PMS_P2;Temp;Humidity;BMP_temperature;BMP_pressure;BME280_temperature;BME280_humidity;BME280_pressure;Samples;Min_cycle;Max_cycle;Signal;HPM_P1;HPM_P2
2022/10/27 00:02:07;;;;;;;;;;;;;;;;;;4936762;29;19971;-83
2022/10/27 00:04:32;;;;;;;;;;;;;;;13.62;100.00;68275.72;4924441;29;19915;-84
2022/10/27 00:06:57;;;;;;;;;;;;;;;;;;4911676;29;20410;-86
2022/10/27 00:09:22;;;;;;;;;;;;;;;13.54;100.00;68272.53;4923983;29;19923;-84
2022/10/27 00:11:47;;;;;;;;;;;;;;;;;;4934126;29;19918;-85
2022/10/27 00:14:13;;;;;;;;;;;;;;;13.60;100.00;68279.34;4933084;29;19919;-83
2022/10/27 00:16:38;;;;;;;;;;;;;;;13.59;100.00;68278.22;4930824;29;20313;-84
2022/10/27 00:19:03;;;;;;;;;;;;;;;13.59;100.00;68278.22;4927249;29;19922;-86
2022/10/27 00:21:28;;;;;;;;;;;;;;;13.64;100.00;68283.91;4930371;29;19946;-83
2022/10/27 00:23:53;;;;;;;;;;;;;;;;;;4929507;29;19915;-83
2022/10/27 00:26:20;;;;;;;;;;;;;;;13.72;100.00;68293.00;4921945;29;19919;-84
2022/10/27 00:28:45;;;;;;;;;;;;;;;13.79;100.00;68297.16;4933552;29;20013;-85
2022/10/27 00:31:10;;;;;;;;;;;;;;;;;;4929189;29;20410;-85
2022/10/27 00:33:35;;;;;;;;;;;;;;;13.83;100.00;68304.38;4931843;29;20271;-84
2022/10/27 00:36:11;;;;;;;;;;;;;;;13.81;100.00;68302.69;4928799;29;19914;-84
2022/10/27 00:38:37;;;;;;;;;;;;;;;;;;4933194;29;19919;-81
2022/10/27 00:41:03;;;;;;;;;;;;;;;13.89;100.00;68316.56;4927369;29;19919;-84
2022/10/27 00:43:32;;;;;;;;;;;;;;;13.89;100.00;68311.19;4939029;29;19953;-81
2022/10/27 00:46:06;;;;;;;;;;;;;;;13.85;100.00;68303.97;4934432;29;19911;-81
2022/10/27 00:48:33;;;;;;;;;;;;;;;13.84;100.00;68303.41;4953427;29;19914;-80
2022/10/27 00:50:59;;;;;;;;;;;;;;;13.82;100.00;68303.25;4941475;29;19918;-83
2022/10/27 00:53:24;;;;;;;;;;;;;;;13.79;100.00;68297.72;4932379;29;20576;-83
2022/10/27 00:55:49;;;;;;;;;;;;;;;13.76;100.00;68294.88;4929863;29;20002;-82
2022/10/27 00:58:17;;;;;;;;;;;;;;;13.74;100.00;68289.91;4932182;29;20443;-84
2022/10/27 01:00:42;;;;;;;;;;;;;;;13.68;100.00;68288.44;4931066;29;19945;-84
2022/10/27 01:03:08;;;;;;;;;;;;;;;13.64;100.00;68278.56;4930296;29;20450;-82
2022/10/27 01:05:34;;;;;;;;;;;;;;;;;;4930303;29;20307;-82
2022/10/27 01:08:03;;;;;;;;;;;;;;;13.67;100.00;68284.63;4929145;29;19950;-81
2022/10/27 01:10:29;;;;;;;;;;;;;;;13.68;100.00;68287.88;4931225;29;19925;-83
2022/10/27 01:12:54;;;;;;;;;;;;;;;;;;4928961;29;19914;-81
2022/10/27 01:15:21;;;;;;;;;;;;;;;13.63;100.00;68279.50;4926711;29;20332;-84
2022/10/27 01:17:46;;;;;;;;;;;;;;;13.66;100.00;68285.59;4929710;29;19915;-82
2022/10/27 01:20:11;;;;;;;;;;;;;;;13.69;100.00;68289.56;4930648;29;19919;-83
2022/10/27 01:22:42;;;;;;;;;;;;;;;13.66;100.00;68283.50;4930367;29;19914;-83
2022/10/27 01:25:08;;;;;;;;;;;;;;;;;;4928977;29;19926;-83
2022/10/27 01:27:51;;;;;;;;;;;;;;;13.63;100.00;68287.53;4923455;29;19919;-83
2022/10/27 01:30:16;;;;;;;;;;;;;;;;;;4907354;29;19915;-83
2022/10/27 01:32:41;;;;;;;;;;;;;;;13.59;100.00;68283.00;4924785;29;19923;-84
2022/10/27 01:35:13;;;;;;;;;;;;;;;13.58;100.00;68273.81;4929736;29;19919;-82
2022/10/27 01:37:38;;;;;;;;;;;;;;;;;;4929828;29;19918;-83
2022/10/27 01:40:09;;;;;;;;;;;;;;;13.67;100.00;68284.63;4928853;29;19926;-83
2022/10/27 01:42:55;;;;;;;;;;;;;;;13.72;100.00;68290.34;4933458;29;20313;-82
2022/10/27 01:45:22;;;;;;;;;;;;;;;13.71;100.00;68291.84;4896884;29;19983;-84
2022/10/27 01:47:47;;;;;;;;;;;;;;;13.73;100.00;68294.13;4944827;29;19914;-83
2022/10/27 01:50:15;;;;;;;;;;;;;;;13.74;100.00;68292.03;4940525;29;19919;-83
2022/10/27 01:52:41;;;;;;;;;;;;;;;13.73;100.00;68293.56;4933955;29;19915;-84
2022/10/27 01:55:12;;;;;;;;;;;;;;;13.72;100.00;68284.97;4931584;29;20417;-83
2022/10/27 01:57:46;;;;;;;;;;;;;;;13.73;100.00;68290.91;4932881;29;20532;-82
2022/10/27 02:00:12;;;;;;;;;;;;;;;13.77;100.00;68295.44;4928496;29;19915;-81
2022/10/27 02:02:37;;;;;;;;;;;;;;;13.76;100.00;68294.88;4933239;29;19921;-83
2022/10/27 02:05:04;;;;;;;;;;;;;;;13.77;100.00;68296.00;4933113;29;19935;-84
2022/10/27 02:07:37;;;;;;;;;;;;;;;13.74;100.00;68292.59;4934198;29;19954;-82
2022/10/27 02:10:09;;;;;;;;;;;;;;;13.72;100.00;68293.00;4934460;29;19930;-83
2022/10/27 02:12:35;;;;;;;;;;;;;;;13.73;100.00;68291.47;4918150;29;20460;-82
2022/10/27 02:15:00;;;;;;;;;;;;;;;;;;4922171;29;19923;-82
2022/10/27 02:17:28;;;;;;;;;;;;;;;13.67;100.00;68287.31;4935708;29;19926;-84
2022/10/27 02:19:55;;;;;;;;;;;;;;;13.70;100.00;68288.06;4933047;29;19915;-83
2022/10/27 02:22:24;;;;;;;;;;;;;;;13.66;100.00;68282.94;4933304;29;20299;-83
2022/10/27 02:24:50;;;;;;;;;;;;;;;13.65;100.00;68285.03;4933385;29;20492;-83
2022/10/27 02:27:19;;;;;;;;;;;;;;;13.69;100.00;68289.56;4933415;29;19915;-82
2022/10/27 02:29:46;;;;;;;;;;;;;;;13.71;100.00;68291.28;4934860;29;19953;-84
2022/10/27 02:32:14;;;;;;;;;;;;;;;13.73;100.00;68293.56;4932734;29;19918;-84
2022/10/27 02:34:39;;;;;;;;;;;;;;;;;;4917709;29;19923;-83
2022/10/27 02:37:06;;;;;;;;;;;;;;;13.70;100.00;68285.38;4933636;29;19919;-82
2022/10/27 02:39:31;;;;;;;;;;;;;;;13.64;100.00;68281.22;4933715;29;19918;-83
2022/10/27 02:41:57;;;;;;;;;;;;;;;13.66;100.00;68282.94;4945420;29;19919;-83
2022/10/27 02:44:22;;;;;;;;;;;;;;;13.65;100.00;68285.03;4931089;29;19902;-81
2022/10/27 02:46:47;;;;;;;;;;;;;;;13.67;100.00;68286.75;4944550;29;19915;-82
2022/10/27 02:49:12;;;;;;;;;;;;;;;13.63;100.00;68282.19;4947103;29;19925;-83
2022/10/27 02:51:37;;;;;;;;;;;;;;;;;;4950201;29;20228;-82
2022/10/27 02:54:03;;;;;;;;;;;;;;;13.62;100.00;68278.38;4947988;29;19926;-83
2022/10/27 02:56:28;;;;;;;;;;;;;;;13.59;100.00;68277.66;4936998;29;20438;-83
2022/10/27 02:58:53;;;;;;;;;;;;;;;13.58;100.00;68277.09;4933538;29;19969;-83
2022/10/27 03:01:18;;;;;;;;;;;;;;;13.59;100.00;68274.97;4931041;29;19922;-83
2022/10/27 03:03:44;;;;;;;;;;;;;;;13.57;100.00;68275.94;4932343;29;19918;-83
2022/10/27 03:06:09;;;;;;;;;;;;;;;;;;4931942;29;19957;-83
2022/10/27 03:08:34;;;;;;;;;;;;;;;13.49;100.00;68267.41;4916531;29;19970;-82
2022/10/27 03:10:59;;;;;;;;;;;;;;;13.48;100.00;68265.69;4928820;29;19919;-83
2022/10/27 03:13:24;;;;;;;;;;;;;;;13.45;100.00;68262.28;4933649;29;19922;-83
2022/10/27 03:15:50;;;;;;;;;;;;;;;;;;4929461;29;19923;-83
2022/10/27 03:18:15;;;;;;;;;;;;;;;13.46;100.00;68263.41;4930889;29;19915;-83
2022/10/27 03:20:41;;;;;;;;;;;;;;;13.49;100.00;68267.41;4914040;29;19930;-83
2022/10/27 03:23:06;;;;;;;;;;;;;;;13.48;100.00;68265.69;4930722;29;19918;-82
2022/10/27 03:25:31;;;;;;;;;;;;;;;13.46;100.00;68263.97;4932245;29;19919;-82
2022/10/27 03:27:56;;;;;;;;;;;;;;;13.44;100.00;68261.72;4932039;29;19967;-83
2022/10/27 03:30:23;;;;;;;;;;;;;;;13.42;100.00;68259.44;4933800;29;19922;-82
2022/10/27 03:32:50;;;;;;;;;;;;;;;13.42;100.00;68259.44;4930523;29;19918;-83
2022/10/27 03:35:17;;;;;;;;;;;;;;;13.45;100.00;68262.28;4931840;29;19919;-82
2022/10/27 03:37:42;;;;;;;;;;;;;;;13.47;100.00;68264.56;4915954;29;19941;-81
2022/10/27 03:40:07;;;;;;;;;;;;;;;;;;4930956;29;20589;-84
2022/10/27 03:42:32;;;;;;;;;;;;;;;13.45;100.00;68262.28;4929820;29;19942;-83
2022/10/27 03:44:58;;;;;;;;;;;;;;;13.38;100.00;68254.31;4913247;29;19926;-82
2022/10/27 03:47:23;;;;;;;;;;;;;;;13.32;100.00;68248.06;4913598;29;19961;-82
2022/10/27 03:49:48;;;;;;;;;;;;;;;13.32;100.00;68248.66;4933231;29;19918;-82
2022/10/27 03:52:13;;;;;;;;;;;;;;;;;;4933169;29;19926;-84
2022/10/27 03:54:39;;;;;;;;;;;;;;;13.23;100.00;68238.38;4939190;29;20424;-82
2022/10/27 03:57:04;;;;;;;;;;;;;;;13.18;100.00;68238.06;4931863;29;19950;-84
2022/10/27 03:59:29;;;;;;;;;;;;;;;13.14;100.00;68228.13;4914888;29;19986;-83
2022/10/27 04:01:55;;;;;;;;;;;;;;;13.10;100.00;68229.50;4856747;29;19928;-82
2022/10/27 04:04:20;;;;;;;;;;;;;;;13.04;100.00;68217.34;4839830;29;19955;-82
2022/10/27 04:06:45;;;;;;;;;;;;;;;13.02;100.00;68211.84;4846582;29;20084;-83
2022/10/27 04:09:10;;;;;;;;;;;;;;;13.05;100.00;68215.25;4853151;29;19928;-84
2022/10/27 04:11:35;;;;;;;;;;;;;;;13.07;100.00;68220.19;4850019;29;19927;-85
2022/10/27 04:14:01;;;;;;;;;;;;;;;13.04;100.00;68217.34;4854460;29;19923;-83
2022/10/27 04:16:26;;;;;;;;;;;;;;;13.01;100.00;68211.25;4857170;29;20064;-81
2022/10/27 04:18:51;;;;;;;;;;;;;;;;;;4854728;29;20011;-82
2022/10/27 04:21:16;;;;;;;;;;;;;;;13.00;100.00;68212.22;4855741;29;19939;-83
2022/10/27 04:23:42;;;;;;;;;;;;;;;;;;4841095;29;20004;-83
2022/10/27 04:26:07;;;;;;;;;;;;;;;;;;4855566;29;20300;-82
2022/10/27 04:28:32;;;;;;;;;;;;;;;12.99;100.00;68211.66;4853815;29;19976;-83
2022/10/27 04:31:03;;;;;;;;;;;;;;;12.99;100.00;68211.66;4800519;29;19916;-83
2022/10/27 04:33:28;;;;;;;;;;;;;;;13.01;100.00;68211.25;4890095;23;21202;-82
2022/10/27 04:35:53;;;;;;;;;;;;;;;13.02;100.00;68214.50;4968050;28;19929;-83
2022/10/27 04:38:19;;;;;;;;;;;;;;;13.02;100.00;68214.50;4952878;28;19923;-82
2022/10/27 04:40:44;;;;;;;;;;;;;;;13.04;100.00;68211.44;4954923;28;19921;-82
2022/10/27 04:43:09;;;;;;;;;;;;;;;13.01;100.00;68211.25;4952550;28;19919;-82
2022/10/27 04:45:35;;;;;;;;;;;;;;;13.06;100.00;68219.03;4955754;28;19946;-83
2022/10/27 04:48:00;;;;;;;;;;;;;;;;;;4950150;28;19930;-83
2022/10/27 04:50:25;;;;;;;;;;;;;;;13.05;100.00;68215.81;4953171;28;19921;-83
2022/10/27 04:53:08;;;;;;;;;;;;;;;13.08;100.00;68219.22;4955469;28;19919;-83
2022/10/27 04:55:34;;;;;;;;;;;;;;;13.08;100.00;68221.31;4961110;28;19981;-86
2022/10/27 04:57:59;;;;;;;;;;;;;;;13.07;100.00;68217.53;4973243;28;19914;-86
2022/10/27 05:00:25;;;;;;;;;;;;;;;13.04;100.00;68216.78;4941514;29;19965;-83
2022/10/27 05:02:51;;;;;;;;;;;;;;;13.03;100.00;68213.53;4959605;29;19981;-85
2022/10/27 05:05:17;;;;;;;;;;;;;;;13.05;100.00;68217.91;4969097;29;19949;-88
2022/10/27 05:07:42;;;;;;;;;;;;;;;13.03;100.00;68212.97;4967075;29;19945;-85
2022/10/27 05:10:07;;;;;;;;;;;;;;;13.01;100.00;68213.38;4938717;29;19925;-84
2022/10/27 05:12:32;;;;;;;;;;;;;;;13.00;100.00;68212.22;4939242;29;19922;-82
2022/10/27 05:14:58;;;;;;;;;;;;;;;12.93;100.00;68204.28;4950820;29;19923;-82
2022/10/27 05:17:23;;;;;;;;;;;;;;;12.92;100.00;68203.72;4953957;28;20305;-83
2022/10/27 05:19:48;;;;;;;;;;;;;;;;;;4956155;29;20379;-86
2022/10/27 05:22:13;;;;;;;;;;;;;;;12.83;100.00;68199.38;4952927;29;19951;-85
2022/10/27 05:24:38;;;;;;;;;;;;;;;;;;4954247;29;20338;-83
2022/10/27 05:27:04;;;;;;;;;;;;;;;12.81;100.00;68188.53;4954019;29;19919;-84
2022/10/27 05:29:30;;;;;;;;;;;;;;;12.77;100.00;68183.97;4954528;29;19915;-86
2022/10/27 05:31:55;;;;;;;;;;;;;;;12.72;100.00;68180.97;4955332;29;19918;-83
2022/10/27 05:34:21;;;;;;;;;;;;;;;12.70;100.00;68178.69;4956044;29;19945;-84
2022/10/27 05:36:46;;;;;;;;;;;;;;;12.69;100.00;68178.13;4956432;29;19918;-83
2022/10/27 05:39:12;;;;;;;;;;;;;;;12.68;100.00;68173.75;4954335;29;20434;-84
2022/10/27 05:41:37;;;;;;;;;;;;;;;;;;4953523;28;20390;-84
2022/10/27 05:44:02;;;;;;;;;;;;;;;;;;4953072;29;20203;-83
2022/10/27 05:46:27;;;;;;;;;;;;;;;12.58;100.00;68166.19;4935218;29;19914;-83
2022/10/27 05:48:52;;;;;;;;;;;;;;;12.57;100.00;68164.47;4948985;29;19919;-82
2022/10/27 05:51:17;;;;;;;;;;;;;;;;;;4954389;29;20375;-83
2022/10/27 05:53:43;;;;;;;;;;;;;;;12.50;100.00;68156.53;4950098;28;20021;-82
2022/10/27 05:56:08;;;;;;;;;;;;;;;;;;4956273;29;19929;-83
2022/10/27 05:58:33;;;;;;;;;;;;;;;;;;4955524;29;19929;-83
2022/10/27 06:00:59;;;;;;;;;;;;;;;12.39;100.00;68141.91;4954785;29;19918;-84
2022/10/27 06:03:24;;;;;;;;;;;;;;;12.36;100.00;68146.53;4937739;29;19937;-84
2022/10/27 06:05:50;;;;;;;;;;;;;;;;;;4937758;29;19914;-85
2022/10/27 06:08:15;;;;;;;;;;;;;;;;;;4955020;29;19995;-85
2022/10/27 06:10:40;;;;;;;;;;;;;;;12.23;100.00;68131.75;4953191;29;19925;-84
2022/10/27 06:13:05;;;;;;;;;;;;;;;;;;4932308;29;19925;-85
2022/10/27 06:15:31;;;;;;;;;;;;;;;12.17;100.00;68120.75;4932789;28;20044;-84
2022/10/27 06:17:56;;;;;;;;;;;;;;;;;;4955395;28;19929;-85
2022/10/27 06:20:21;;;;;;;;;;;;;;;12.11;100.00;68113.34;4937295;29;19914;-86
2022/10/27 06:22:47;;;;;;;;;;;;;;;;;;4948386;28;20012;-83
2022/10/27 06:25:12;;;;;;;;;;;;;;;12.10;100.00;68112.22;4938317;29;19924;-86
2022/10/27 06:27:37;;;;;;;;;;;;;;;12.07;100.00;68114.13;4955289;28;19914;-85
2022/10/27 06:30:02;;;;;;;;;;;;;;;;;;4945882;29;19962;-84
2022/10/27 06:32:27;;;;;;;;;;;;;;;;;;4957375;29;20112;-85
2022/10/27 06:34:53;;;;;;;;;;;;;;;11.92;100.00;68092.91;4941298;29;20411;-86
2022/10/27 06:37:18;;;;;;;;;;;;;;;11.92;100.00;68098.22;4948260;28;19976;-85
2022/10/27 06:39:43;;;;;;;;;;;;;;;11.91;100.00;68089.09;4943892;29;20337;-85
2022/10/27 06:42:08;;;;;;;;;;;;;;;11.90;100.00;68095.94;4950309;29;20306;-86
2022/10/27 06:44:34;;;;;;;;;;;;;;;11.93;100.00;68094.03;4953124;29;19918;-84
2022/10/27 06:46:59;;;;;;;;;;;;;;;11.96;100.00;68096.88;4937510;29;20393;-85
2022/10/27 06:49:24;;;;;;;;;;;;;;;11.99;100.00;68099.72;4956021;29;19918;-85
2022/10/27 06:51:49;;;;;;;;;;;;;;;;;;4952667;29;19958;-86
2022/10/27 06:54:14;;;;;;;;;;;;;;;12.00;100.00;68098.16;4954491;29;20155;-84
2022/10/27 06:56:39;;;;;;;;;;;;;;;12.03;100.00;68109.59;4954574;29;19914;-84
2022/10/27 06:59:05;;;;;;;;;;;;;;;;;;4954673;29;19914;-87
2022/10/27 07:01:30;;;;;;;;;;;;;;;12.06;100.00;68105.56;4957431;28;19921;-85
2022/10/27 07:03:55;;;;;;;;;;;;;;;;;;4954247;29;20000;-85
2022/10/27 07:06:21;;;;;;;;;;;;;;;;;;4956378;28;20283;-84
2022/10/27 07:08:46;;;;;;;;;;;;;;;12.15;100.00;68117.91;4954774;29;19914;-86
2022/10/27 07:11:12;;;;;;;;;;;;;;;12.18;100.00;68121.88;4953335;29;20298;-86
2022/10/27 07:13:37;;;;;;;;;;;;;;;12.23;100.00;68127.00;4949074;28;19919;-84
2022/10/27 07:16:02;;;;;;;;;;;;;;;12.29;100.00;68139.16;4947289;29;20370;-84
2022/10/27 07:18:28;;;;;;;;;;;;;;;12.36;100.00;68139.06;4936351;29;19914;-85
2022/10/27 07:20:53;;;;;;;;;;;;;;;12.46;100.00;68151.97;4936343;29;19914;-84
2022/10/27 07:23:18;;;;;;;;;;;;;;;12.54;100.00;68161.63;4955687;28;19962;-85
2022/10/27 07:25:44;;;;;;;;;;;;;;;;;;4951940;29;19918;-87
2022/10/27 07:28:09;;;;;;;;;;;;;;;;;;4945219;28;19925;-85
2022/10/27 07:30:34;;;;;;;;;;;;;;;;;;4955831;29;19957;-85
2022/10/27 07:32:59;;;;;;;;;;;;;;;12.87;100.00;68192.69;4954944;29;19915;-88
2022/10/27 07:35:25;;;;;;;;;;;;;;;12.97;100.00;68208.81;4952678;29;19928;-85
2022/10/27 07:37:50;;;;;;;;;;;;;;;13.06;100.00;68219.03;4956340;28;19989;-84
2022/10/27 07:40:17;;;;;;;;;;;;;;;13.13;100.00;68227.00;4949839;28;20146;-84
2022/10/27 07:42:46;;;;;;;;;;;;;;;13.22;100.00;68242.59;4922469;29;19950;-85
2022/10/27 07:45:12;;;;;;;;;;;;;;;13.29;100.00;68245.22;4942424;29;20429;-85
2022/10/27 07:47:37;;;;;;;;;;;;;;;;;;4957622;28;19918;-88
2022/10/27 07:50:02;;;;;;;;;;;;;;;;;;4973719;28;20396;-85
2022/10/27 07:52:27;;;;;;;;;;;;;;;13.51;100.00;68269.69;4966299;28;19922;-85
2022/10/27 07:54:53;;;;;;;;;;;;;;;13.61;100.00;68280.50;4939877;28;20005;-84
2022/10/27 07:57:18;;;;;;;;;;;;;;;13.66;100.00;68286.16;4954555;29;19945;-85
2022/10/27 07:59:43;;;;;;;;;;;;;;;13.70;100.00;68288.06;4957283;29;19915;-85
2022/10/27 08:02:11;;;;;;;;;;;;;;;13.74;100.00;68295.28;4936478;29;19922;-84
2022/10/27 08:04:36;;;;;;;;;;;;;;;13.81;100.00;68302.09;4953972;29;19918;-84
2022/10/27 08:07:02;;;;;;;;;;;;;;;13.85;100.00;68306.66;4937034;29;19925;-86
2022/10/27 08:09:27;;;;;;;;;;;;;;;13.96;100.00;68319.16;4938389;29;19977;-84
2022/10/27 08:11:52;;;;;;;;;;;;;;;14.02;100.00;68330.78;4925751;29;20441;-85
2022/10/27 08:14:18;;;;;;;;;;;;;;;;;;4940204;29;20409;-88
2022/10/27 08:16:43;;;;;;;;;;;;;;;14.16;100.00;68338.69;4955840;28;19926;-85
2022/10/27 08:19:09;;;;;;;;;;;;;;;14.23;100.00;68343.97;4955379;29;19914;-86
2022/10/27 08:21:34;;;;;;;;;;;;;;;14.31;100.00;68352.50;4956586;29;20397;-83
2022/10/27 08:23:59;;;;;;;;;;;;;;;14.41;100.00;68363.88;4956208;28;20435;-87
2022/10/27 08:26:24;;;;;;;;;;;;;;;14.48;100.00;68377.22;4972402;28;20338;-85
2022/10/27 08:28:50;;;;;;;;;;;;;;;14.61;100.00;68392.03;4973315;28;19918;-86
2022/10/27 08:31:15;;;;;;;;;;;;;;;14.70;100.00;68401.13;4974888;28;20408;-85
2022/10/27 08:33:40;;;;;;;;;;;;;;;;;;4964165;28;20402;-85
2022/10/27 08:36:05;;;;;;;;;;;;;;;14.90;100.00;68418.53;4933774;29;19922;-85
2022/10/27 08:38:32;;;;;;;;;;;;;;;15.00;100.00;68435.31;4954740;28;19950;-84
2022/10/27 08:40:58;;;;;;;;;;;;;;;;;;4956086;28;19915;-85
2022/10/27 08:43:32;;;;;;;;;;;;;;;15.21;100.00;68458.63;4955127;29;19930;-86
2022/10/27 08:45:57;;;;;;;;;;;;;;;;;;4953950;29;19918;-86
2022/10/27 08:48:24;;;;;;;;;;;;;;;15.36;100.00;68475.16;4957370;28;20048;-85
2022/10/27 08:50:50;;;;;;;;;;;;;;;15.38;100.00;68477.44;4936923;29;21151;-85
2022/10/27 08:53:19;;;;;;;;;;;;;;;15.43;100.00;68479.88;4956308;28;19965;-87
2022/10/27 08:55:47;;;;;;;;;;;;;;;15.49;100.00;68489.97;4948281;28;19925;-85
2022/10/27 08:58:18;;;;;;;;;;;;;;;15.55;100.00;68496.81;4938379;29;19922;-85
2022/10/27 09:00:48;;;;;;;;;;;;;;;15.62;100.00;68501.53;4948270;28;19925;-84
2022/10/27 09:03:33;;;;;;;;;;;;;;;15.65;100.00;68507.06;4970354;28;19919;-86
2022/10/27 09:05:58;;;;;;;;;;;;;;;15.74;100.00;68517.91;4954407;29;19914;-85
2022/10/27 09:08:46;;;;;;;;;;;;;;;15.88;100.00;68524.66;4954586;29;20010;-85
2022/10/27 09:11:23;;;;;;;;;;;;;;;16.02;100.00;68548.66;4953960;29;19948;-85
2022/10/27 09:14:03;;;;;;;;;;;;;;;16.12;99.53;68554.13;4954894;28;19933;-85
2022/10/27 09:16:37;;;;;;;;;;;;;;;16.30;99.28;68580.00;4936042;29;19934;-84
2022/10/27 09:19:04;;;;;;;;;;;;;;;16.38;97.55;68589.13;4956304;28;20043;-86
2022/10/27 09:21:32;;;;;;;;;;;;;;;16.54;97.95;68604.13;4939274;29;19978;-87
2022/10/27 09:24:01;;;;;;;;;;;;;;;16.64;96.55;68609.59;4957927;28;19914;-84
2022/10/27 09:26:28;;;;;;;;;;;;;;;16.75;95.23;68624.81;4959315;28;20013;-84
2022/10/27 09:28:54;;;;;;;;;;;;;;;16.81;94.61;68636.47;4975152;28;19921;-86
2022/10/27 09:31:49;;;;;;;;;;;;;;;16.91;94.98;68643.06;4959009;28;19917;-85
2022/10/27 09:34:17;;;;;;;;;;;;;;;16.98;94.30;68655.31;4913804;28;19998;-85
2022/10/27 09:36:43;;;;;;;;;;;;;;;17.05;94.88;68663.84;4958502;28;19990;-85
2022/10/27 09:39:08;;;;;;;;;;;;;;;;;;4937358;29;19957;-85
2022/10/27 09:41:33;;;;;;;;;;;;;;;17.23;94.39;68678.41;4952926;28;19985;-86
2022/10/27 09:43:59;;;;;;;;;;;;;;;17.31;93.32;68689.69;4972117;28;20279;-86
2022/10/27 09:46:27;;;;;;;;;;;;;;;17.38;92.46;68694.97;4946809;29;19918;-85
2022/10/27 09:48:54;;;;;;;;;;;;;;;17.46;92.31;68708.91;4959185;28;19957;-85
2022/10/27 09:51:25;;;;;;;;;;;;;;;17.53;90.56;68714.22;4954732;28;20684;-86
2022/10/27 09:53:51;;;;;;;;;;;;;;;17.61;91.14;68723.34;4947337;28;20446;-85
2022/10/27 09:56:25;;;;;;;;;;;;;;;17.73;89.79;68739.72;4938721;29;19922;-85
2022/10/27 09:58:56;;;;;;;;;;;;;;;17.80;88.08;68747.72;4953883;29;19929;-86
2022/10/27 10:01:22;;;;;;;;;;;;;;;17.87;87.63;68749.19;4957122;29;20005;-84
2022/10/27 10:03:52;;;;;;;;;;;;;;;17.91;86.12;68756.44;4961581;28;19922;-84
2022/10/27 10:06:30;;;;;;;;;;;;;;;17.94;85.52;68762.56;4962967;29;19923;-86
2022/10/27 10:09:13;;;;;;;;;;;;;;;17.99;85.77;68760.75;4964260;28;19953;-84
2022/10/27 10:11:39;;;;;;;;;;;;;;;18.06;85.76;68775.69;4977590;28;19922;-85
2022/10/27 10:14:04;;;;;;;;;;;;;;;18.08;85.67;68773.16;4961747;28;19918;-84
2022/10/27 10:16:29;;;;;;;;;;;;;;;18.10;85.15;68774.88;4957633;28;19922;-85
2022/10/27 10:19:05;;;;;;;;;;;;;;;18.17;85.18;68785.56;4974545;28;19914;-85
2022/10/27 10:21:52;;;;;;;;;;;;;;;18.24;84.38;68788.75;4959036;28;19921;-84
2022/10/27 10:24:18;;;;;;;;;;;;;;;18.28;84.36;68792.72;4949400;28;19915;-85
2022/10/27 10:26:45;;;;;;;;;;;;;;;18.36;83.36;68804.00;4954262;29;20614;-84
2022/10/27 10:29:15;;;;;;;;;;;;;;;18.39;83.32;68810.69;4957666;28;20017;-84
2022/10/27 10:31:41;;;;;;;;;;;;;;;18.44;83.57;68818.50;4958022;28;19930;-85
2022/10/27 10:34:26;;;;;;;;;;;;;;;18.53;83.70;68825.50;4964385;28;19918;-83
2022/10/27 10:36:51;;;;;;;;;;;;;;;18.60;83.39;68830.81;4953196;28;19956;-85
2022/10/27 10:39:24;;;;;;;;;;;;;;;18.67;83.33;68842.09;4955870;28;20440;-84
2022/10/27 10:42:08;;;;;;;;;;;;;;;18.76;82.88;68854.50;4960645;28;20798;-84
2022/10/27 10:44:33;;;;;;;;;;;;;;;18.79;81.29;68855.22;4939624;29;19926;-84
2022/10/27 10:46:59;;;;;;;;;;;;;;;18.89;80.44;68863.38;4951699;28;19922;-84
2022/10/27 10:49:33;;;;;;;;;;;;;;;18.97;80.18;68875.22;4957044;28;19970;-84
2022/10/27 10:52:00;;;;;;;;;;;;;;;19.12;81.64;68886.38;4962879;28;20013;-83
2022/10/27 10:54:35;;;;;;;;;;;;;;;19.23;80.80;68901.06;4947170;28;19915;-83
2022/10/27 10:57:01;;;;;;;;;;;;;;;19.23;79.67;68901.06;4956156;28;19928;-84
2022/10/27 10:59:49;;;;;;;;;;;;;;;19.23;79.78;68903.78;4967085;28;19969;-83
2022/10/27 11:02:24;;;;;;;;;;;;;;;19.28;79.47;68904.09;4960664;28;19918;-84
2022/10/27 11:04:51;;;;;;;;;;;;;;;19.31;80.68;68910.22;4942048;28;19956;-84
2022/10/27 11:07:23;;;;;;;;;;;;;;;19.36;79.17;68921.91;4956940;28;20378;-86
2022/10/27 11:10:03;;;;;;;;;;;;;;;19.45;79.04;68925.63;4952283;29;20317;-82
2022/10/27 11:12:33;;;;;;;;;;;;;;;19.51;77.72;68933.06;4953150;28;19925;-86
2022/10/27 11:15:02;;;;;;;;;;;;;;;19.64;78.42;68946.78;4945757;28;19933;-86
2022/10/27 11:17:30;;;;;;;;;;;;;;;19.76;75.97;68960.50;4953904;28;19919;-83
2022/10/27 11:19:55;;;;;;;;;;;;;;;19.82;76.03;68967.94;4947427;28;19918;-84
2022/10/27 11:22:21;;;;;;;;;;;;;;;19.93;75.91;68982.63;4946729;28;19946;-84
2022/10/27 11:24:50;;;;;;;;;;;;;;;19.95;74.87;68987.63;4947410;29;19914;-83
2022/10/27 11:27:23;;;;;;;;;;;;;;;20.02;76.28;68995.06;4949277;29;19962;-87
2022/10/27 11:29:51;;;;;;;;;;;;;;;20.05;74.16;68998.47;4954227;28;19918;-85
2022/10/27 11:32:32;;;;;;;;;;;;;;;20.06;73.86;68999.63;4953351;28;20875;-85
2022/10/27 11:35:09;;;;;;;;;;;;;;;20.10;74.53;68998.22;4955783;28;20021;-86
2022/10/27 11:37:45;;;;;;;;;;;;;;;20.12;74.55;69000.53;4944597;28;19950;-87
2022/10/27 11:40:18;;;;;;;;;;;;;;;20.13;73.90;69004.34;4943688;28;19914;-85
2022/10/27 11:42:49;;;;;;;;;;;;;;;20.19;74.34;69008.50;4951790;28;19930;-82
2022/10/27 11:45:19;;;;;;;;;;;;;;;20.28;73.94;69018.78;4934708;28;19977;-84
2022/10/27 11:47:47;;;;;;;;;;;;;;;20.37;73.59;69031.22;4943774;28;19918;-86
2022/10/27 11:50:21;;;;;;;;;;;;;;;20.38;71.30;69027.53;4947890;28;20367;-84
2022/10/27 11:52:47;;;;;;;;;;;;;;;20.37;69.61;69031.81;4949717;28;19914;-87
2022/10/27 11:55:15;;;;;;;;;;;;;;;20.39;71.23;69030.81;4950335;28;19922;-84
2022/10/27 11:58:03;;;;;;;;;;;;;;;20.40;68.64;69032.53;4953489;28;19946;-85
2022/10/27 12:00:31;;;;;;;;;;;;;;;20.47;69.15;69042.66;4908923;29;19930;-84
2022/10/27 12:03:08;;;;;;;;;;;;;;;20.47;71.03;69037.81;4944225;29;19932;-84
2022/10/27 12:05:43;;;;;;;;;;;;;;;20.55;70.33;69048.56;4935595;28;19915;-83
2022/10/27 12:08:27;;;;;;;;;;;;;;;20.58;71.10;69054.69;4945141;29;19966;-83
2022/10/27 12:11:11;;;;;;;;;;;;;;;20.59;70.06;69051.00;4936039;29;19919;-83
2022/10/27 12:13:36;;;;;;;;;;;;;;;20.62;70.08;69057.13;4926814;28;19915;-85
2022/10/27 12:16:09;;;;;;;;;;;;;;;20.68;71.44;69066.13;4942929;29;19918;-84
2022/10/27 12:18:41;;;;;;;;;;;;;;;20.77;71.19;69073.69;4945564;29;20017;-83
2022/10/27 12:21:15;;;;;;;;;;;;;;;20.79;71.85;69081.41;4950661;29;19921;-81
2022/10/27 12:23:47;;;;;;;;;;;;;;;20.79;71.08;69081.41;4930899;29;19914;-85
2022/10/27 12:26:20;;;;;;;;;;;;;;;20.83;70.97;69083.28;4932230;29;19914;-83
2022/10/27 12:28:45;;;;;;;;;;;;;;;20.78;70.47;69077.56;4936085;29;19922;-83
2022/10/27 12:31:13;;;;;;;;;;;;;;;20.72;70.75;69068.00;4922744;29;19914;-85
2022/10/27 12:33:46;;;;;;;;;;;;;;;20.81;72.75;69077.72;4943153;28;19918;-84
2022/10/27 12:36:31;;;;;;;;;;;;;;;20.85;72.13;69088.28;4949920;28;19928;-84
2022/10/27 12:39:05;;;;;;;;;;;;;;;20.85;71.98;69085.00;4964390;28;19989;-83
2022/10/27 12:41:37;;;;;;;;;;;;;;;20.93;71.96;69092.00;4955645;28;20013;-84
2022/10/27 12:44:21;;;;;;;;;;;;;;;20.93;72.20;69092.00;4947764;29;20459;-84
2022/10/27 12:46:55;;;;;;;;;;;;;;;20.89;73.10;69084.16;4935741;28;19977;-84
2022/10/27 12:49:43;;;;;;;;;;;;;;;20.82;72.20;69081.56;4940404;28;19925;-83
2022/10/27 12:52:20;;;;;;;;;;;;;;;20.78;72.32;69077.00;4953739;28;19914;-83
2022/10/27 12:54:54;;;;;;;;;;;;;;;20.73;72.98;69069.13;4950511;28;19914;-83
2022/10/27 12:57:19;;;;;;;;;;;;;;;20.68;73.02;69069.38;4969638;28;19929;-84
2022/10/27 12:59:53;;;;;;;;;;;;;;;20.64;72.02;69062.13;4962685;28;20448;-83
2022/10/27 13:02:22;;;;;;;;;;;;;;;20.67;73.16;69064.97;4954660;28;19987;-84
2022/10/27 13:04:47;;;;;;;;;;;;;;;20.67;73.16;69062.84;4955793;29;19944;-85
2022/10/27 13:07:28;;;;;;;;;;;;;;;20.72;74.35;69070.72;4944612;29;19970;-82
2022/10/27 13:09:53;;;;;;;;;;;;;;;20.72;74.49;69073.41;4936018;29;19918;-84
2022/10/27 13:12:21;;;;;;;;;;;;;;;20.69;74.63;69067.84;4948798;28;19922;-83
2022/10/27 13:14:49;;;;;;;;;;;;;;;20.69;74.74;69067.28;4962798;28;20009;-84